Time;durP1;ratioP1;P1;durP2;ratioP2;P2;SDS_P1;SDS_P2;PMS_P1;PMS_P2;Temp;Humidity;BMP_temperature;BMP_pressure;BME280_temperature;BME280_humidity;BME280_pressure;Samples;Min_cycle;Max_cycle;Signal;HPM_P1;HPM_P2
2024/02/25 00:00:57;;;;;;;3.05;1.25;;;3.90;99.90;;;;;;5059538;28;20198;-60
2024/02/25 00:03:24;;;;;;;2.33;1.42;;;4.00;99.90;;;;;;5058997;28;20186;-60
2024/02/25 00:05:50;;;;;;;2.65;1.20;;;4.00;99.90;;;;;;5059934;28;20203;-59
2024/02/25 00:08:17;;;;;;;1.70;1.10;;;4.10;99.90;;;;;;5060806;28;20574;-60
2024/02/25 00:10:44;;;;;;;1.77;1.40;;;4.00;99.90;;;;;;5058575;28;20201;-58
2024/02/25 00:13:12;;;;;;;3.42;2.15;;;3.90;99.90;;;;;;5058035;28;20202;-61
2024/02/25 00:15:39;;;;;;;1.75;1.13;;;3.90;99.90;;;;;;5055987;28;20201;-60
2024/02/25 00:18:06;;;;;;;2.05;1.10;;;3.80;99.90;;;;;;5053967;28;20700;-60
2024/02/25 00:20:33;;;;;;;2.58;1.33;;;3.80;99.90;;;;;;5054085;28;20679;-60
2024/02/25 00:23:00;;;;;;;2.50;1.20;;;3.70;99.90;;;;;;5053977;28;20720;-60
2024/02/25 00:25:26;;;;;;;1.92;1.10;;;3.70;99.90;;;;;;5054362;28;20208;-61
2024/02/25 00:27:53;;;;;;;1.92;1.30;;;3.70;99.90;;;;;;5055758;28;20618;-60
2024/02/25 00:30:21;;;;;;;2.65;1.15;;;3.60;99.90;;;;;;5059363;28;20217;-60
2024/02/25 00:32:48;;;;;;;2.55;1.50;;;3.70;99.90;;;;;;5060492;28;20232;-60
2024/02/25 00:35:15;;;;;;;2.30;1.35;;;3.60;99.90;;;;;;5060748;28;20591;-60
2024/02/25 00:37:42;;;;;;;2.55;1.50;;;3.60;99.90;;;;;;5062871;28;20214;-59
2024/02/25 00:40:10;;;;;;;3.22;1.70;;;3.60;99.90;;;;;;5064380;28;20205;-60
2024/02/25 00:42:38;;;;;;;1.40;1.20;;;3.60;99.90;;;;;;5063540;28;20227;-60
2024/02/25 00:45:05;;;;;;;4.72;1.63;;;3.60;99.90;;;;;;5062758;28;20203;-61
2024/02/25 00:47:34;;;;;;;1.98;1.50;;;3.70;99.90;;;;;;5061840;28;20217;-61
2024/02/25 00:50:01;;;;;;;2.17;1.60;;;3.60;99.90;;;;;;5063136;28;20202;-59
2024/02/25 00:52:31;;;;;;;1.65;1.20;;;3.70;99.90;;;;;;5063719;28;20232;-59
2024/02/25 00:54:58;;;;;;;4.40;1.42;;;3.60;99.90;;;;;;5063327;28;20186;-60
2024/02/25 00:57:25;;;;;;;1.90;1.10;;;3.70;99.90;;;;;;5063191;28;20204;-61
2024/02/25 00:59:52;;;;;;;1.70;1.30;;;3.70;99.90;;;;;;5061936;28;20563;-60
2024/02/25 01:02:18;;;;;;;2.40;1.30;;;3.70;99.90;;;;;;5059833;28;20622;-60
2024/02/25 01:04:46;;;;;;;5.55;2.10;;;3.70;99.90;;;;;;5062519;28;20246;-60
2024/02/25 01:07:13;;;;;;;2.35;1.35;;;3.80;99.90;;;;;;5062336;28;20269;-60
2024/02/25 01:09:40;;;;;;;1.35;1.25;;;3.80;99.90;;;;;;5061585;28;20198;-61
2024/02/25 01:12:07;;;;;;;1.30;1.20;;;3.80;99.90;;;;;;5063356;28;20232;-61
2024/02/25 01:14:34;;;;;;;1.77;1.10;;;3.90;99.90;;;;;;5062850;28;20201;-60
2024/02/25 01:17:00;;;;;;;1.70;1.27;;;3.90;99.90;;;;;;5058960;28;20208;-60
2024/02/25 01:19:27;;;;;;;1.15;1.05;;;3.90;99.90;;;;;;5059582;28;20221;-60
2024/02/25 01:21:55;;;;;;;2.58;1.60;;;3.90;99.90;;;;;;5059415;28;20230;-60
2024/02/25 01:24:22;;;;;;;1.40;1.25;;;3.90;99.90;;;;;;5058742;28;20206;-61
2024/02/25 01:26:49;;;;;;;2.83;1.20;;;4.00;99.90;;;;;;5058218;28;20229;-61
2024/02/25 01:29:15;;;;;;;2.10;1.15;;;4.00;99.90;;;;;;5058540;28;20202;-61
2024/02/25 01:31:43;;;;;;;1.40;1.20;;;4.00;99.90;;;;;;5057906;28;20232;-60
2024/02/25 01:34:10;;;;;;;1.40;1.05;;;4.00;99.90;;;;;;5058411;28;20280;-60
2024/02/25 01:36:37;;;;;;;2.70;1.55;;;4.00;99.90;;;;;;5057866;28;20269;-59
2024/02/25 01:39:05;;;;;;;1.45;1.35;;;4.00;99.90;;;;;;5056866;28;20699;-58
2024/02/25 01:41:32;;;;;;;3.17;1.30;;;4.00;99.90;;;;;;5056672;28;20280;-61
2024/02/25 01:43:59;;;;;;;1.48;1.38;;;4.00;99.90;;;;;;5057705;28;20198;-58
2024/02/25 01:46:25;;;;;;;2.60;1.45;;;3.90;99.90;;;;;;5058241;28;20668;-60
2024/02/25 01:48:53;;;;;;;1.52;1.35;;;3.90;99.90;;;;;;5058857;28;20198;-60
2024/02/25 01:51:21;;;;;;;2.33;1.30;;;4.00;99.90;;;;;;5059473;28;20228;-60
2024/02/25 01:53:50;;;;;;;2.53;1.35;;;4.00;99.90;;;;;;5058897;28;20204;-58
2024/02/25 01:56:18;;;;;;;1.73;1.25;;;4.00;99.90;;;;;;5059391;28;20356;-60
2024/02/25 01:58:46;;;;;;;1.20;0.90;;;4.00;99.90;;;;;;5058922;28;20711;-59
2024/02/25 02:01:14;;;;;;;2.63;2.03;;;4.00;99.90;;;;;;5059213;28;20607;-60
2024/02/25 02:03:41;;;;;;;3.22;1.45;;;4.10;99.90;;;;;;5059952;28;20210;-60
2024/02/25 02:06:08;;;;;;;1.13;0.93;;;4.10;99.90;;;;;;5058384;28;20212;-60
2024/02/25 02:08:36;;;;;;;1.55;1.30;;;4.10;99.90;;;;;;5057060;28;20602;-60
2024/02/25 02:11:15;;;;;;;2.05;1.40;;;4.10;99.90;;;;;;5056076;28;20233;-60
2024/02/25 02:13:43;;;;;;;1.70;1.27;;;4.20;99.90;;;;;;5056301;28;20193;-60
2024/02/25 02:16:12;;;;;;;1.63;1.42;;;4.20;99.90;;;;;;5056266;28;20256;-60
2024/02/25 02:18:40;;;;;;;1.42;1.10;;;4.20;99.90;;;;;;5056676;28;20337;-60
2024/02/25 02:21:08;;;;;;;2.53;1.33;;;4.20;99.90;;;;;;5056169;28;20272;-61
2024/02/25 02:23:35;;;;;;;1.40;1.27;;;4.20;99.90;;;;;;5057380;28;20209;-59
2024/02/25 02:26:02;;;;;;;1.92;1.10;;;4.20;99.90;;;;;;5059512;28;20202;-61
2024/02/25 02:28:28;;;;;;;2.22;1.45;;;4.20;99.90;;;;;;5059287;28;20270;-61
2024/02/25 02:30:55;;;;;;;1.48;1.23;;;4.20;99.90;;;;;;5056914;28;20308;-61
2024/02/25 02:33:22;;;;;;;2.45;1.40;;;4.20;99.90;;;;;;5057019;28;20213;-60
2024/02/25 02:35:50;;;;;;;1.33;1.23;;;4.20;99.90;;;;;;5056237;28;20202;-59
2024/02/25 02:38:20;;;;;;;1.95;1.23;;;4.20;99.90;;;;;;5055566;28;20214;-60
2024/02/25 02:40:46;;;;;;;1.17;1.00;;;4.20;99.90;;;;;;5055583;28;20195;-60
2024/02/25 02:43:14;;;;;;;2.35;1.30;;;4.20;99.90;;;;;;5055454;28;20206;-60
2024/02/25 02:45:40;;;;;;;2.72;1.30;;;4.20;99.90;;;;;;5055671;28;20252;-60
2024/02/25 02:48:09;;;;;;;3.35;1.00;;;4.10;99.90;;;;;;5054811;28;20206;-60
2024/02/25 02:50:36;;;;;;;1.30;1.20;;;4.10;99.90;;;;;;5055291;28;20207;-61
2024/02/25 02:53:03;;;;;;;3.28;1.10;;;4.10;99.90;;;;;;5053393;28;20226;-60
2024/02/25 02:55:31;;;;;;;1.25;1.15;;;4.10;99.90;;;;;;5054842;28;20208;-59
2024/02/25 02:57:58;;;;;;;1.57;1.27;;;4.10;99.90;;;;;;5054667;28;20212;-60
2024/02/25 03:00:25;;;;;;;2.60;1.25;;;4.10;99.90;;;;;;5055159;28;20206;-56
2024/02/25 03:02:51;;;;;;;1.27;1.10;;;4.10;99.90;;;;;;5056461;28;20236;-59
2024/02/25 03:05:18;;;;;;;5.13;1.60;;;4.10;99.90;;;;;;5056837;28;20198;-61
2024/02/25 03:07:49;;;;;;;1.98;1.20;;;4.10;99.90;;;;;;5056384;28;20201;-59
2024/02/25 03:10:16;;;;;;;1.40;1.10;;;4.10;99.90;;;;;;5054762;28;20186;-59
2024/02/25 03:12:45;;;;;;;1.35;1.25;;;4.10;99.90;;;;;;5054790;28;20224;-60
2024/02/25 03:15:12;;;;;;;2.55;1.45;;;4.10;99.90;;;;;;5054784;28;20208;-60
2024/02/25 03:17:41;;;;;;;1.60;1.45;;;4.10;99.90;;;;;;5055077;28;20627;-59
2024/02/25 03:20:09;;;;;;;2.58;1.13;;;4.10;99.90;;;;;;5054891;28;20703;-59
2024/02/25 03:22:36;;;;;;;1.98;1.25;;;4.10;99.90;;;;;;5054304;28;20728;-60
2024/02/25 03:25:08;;;;;;;1.25;1.15;;;4.20;99.90;;;;;;5054457;28;20209;-59
2024/02/25 03:27:35;;;;;;;1.55;1.45;;;4.20;99.90;;;;;;5054506;28;20190;-60
2024/02/25 03:30:06;;;;;;;1.10;1.00;;;4.20;99.90;;;;;;5054940;28;20255;-60
2024/02/25 03:32:33;;;;;;;1.25;1.05;;;4.20;99.90;;;;;;5056121;28;20218;-59
2024/02/25 03:34:59;;;;;;;1.25;1.15;;;4.30;99.90;;;;;;5054902;28;20205;-59
2024/02/25 03:37:26;;;;;;;1.08;0.98;;;4.30;99.90;;;;;;5054452;28;20201;-60
2024/02/25 03:39:53;;;;;;;1.70;1.13;;;4.30;99.90;;;;;;5054453;28;20600;-60
2024/02/25 03:42:20;;;;;;;1.90;1.25;;;4.40;99.90;;;;;;5054197;28;20219;-61
2024/02/25 03:44:46;;;;;;;1.52;1.10;;;4.30;99.90;;;;;;5054905;28;20208;-61
2024/02/25 03:47:14;;;;;;;1.95;1.10;;;4.30;99.90;;;;;;5055720;28;20202;-61
2024/02/25 03:49:42;;;;;;;1.25;1.02;;;4.30;99.90;;;;;;5055541;28;20197;-60
2024/02/25 03:52:08;;;;;;;1.13;1.02;;;4.30;99.90;;;;;;5056980;28;20700;-60
2024/02/25 03:54:35;;;;;;;4.32;1.40;;;4.30;99.90;;;;;;5058600;28;20201;-59
2024/02/25 03:57:03;;;;;;;0.82;0.80;;;4.30;99.90;;;;;;5058825;28;20206;-59
2024/02/25 03:59:30;;;;;;;2.85;1.20;;;4.30;99.90;;;;;;5058331;28;20217;-60
2024/02/25 04:01:56;;;;;;;1.60;1.30;;;4.30;99.90;;;;;;5058552;28;20688;-60
2024/02/25 04:04:24;;;;;;;2.90;1.10;;;4.30;99.90;;;;;;5058566;28;20202;-60
2024/02/25 04:06:51;;;;;;;1.25;1.00;;;4.30;99.90;;;;;;5058101;28;20537;-61
2024/02/25 04:09:18;;;;;;;3.30;1.25;;;4.30;99.90;;;;;;5057446;28;20204;-61
2024/02/25 04:13:15;;;;;;;4.97;1.10;;;4.30;99.90;;;;;;5158415;27;20549;-61
2024/02/25 04:15:42;;;;;;;3.28;1.63;;;4.30;99.90;;;;;;5158481;27;20194;-60
2024/02/25 04:18:08;;;;;;;1.10;1.00;;;4.30;99.90;;;;;;5155890;27;20205;-60
2024/02/25 04:20:35;;;;;;;1.70;1.60;;;4.20;99.90;;;;;;5159090;27;20198;-60
2024/02/25 04:25:30;;;;;;;1.75;1.05;;;4.30;99.90;;;;;;5075089;28;20279;-61
2024/02/25 04:27:56;;;;;;;1.60;1.30;;;4.30;99.90;;;;;;5071240;28;20701;-62
2024/02/25 04:30:25;;;;;;;5.30;1.20;;;4.30;99.90;;;;;;5074088;28;20208;-62
2024/02/25 04:32:51;;;;;;;3.20;1.30;;;4.40;99.90;;;;;;5074643;28;20248;-63
2024/02/25 04:35:18;;;;;;;2.20;1.33;;;4.50;99.90;;;;;;5074062;28;20236;-62
2024/02/25 04:37:45;;;;;;;1.80;1.35;;;4.50;99.90;;;;;;5072371;28;20208;-63
2024/02/25 04:40:12;;;;;;;2.13;1.23;;;4.60;99.90;;;;;;5072785;28;20216;-62
2024/02/25 04:42:39;;;;;;;1.50;1.20;;;4.60;99.90;;;;;;5072424;28;20231;-62
2024/02/25 04:45:08;;;;;;;1.80;1.30;;;4.70;99.90;;;;;;5073062;28;20225;-62
2024/02/25 04:47:36;;;;;;;1.40;1.13;;;4.70;99.90;;;;;;5073690;28;20201;-62
2024/02/25 04:50:03;;;;;;;1.52;1.33;;;4.80;99.90;;;;;;5072811;28;20197;-61
2024/02/25 04:52:30;;;;;;;1.85;1.60;;;4.80;99.90;;;;;;5080310;28;20221;-62
2024/02/25 04:54:57;;;;;;;2.20;1.30;;;4.80;99.90;;;;;;5086013;28;20225;-62
2024/02/25 04:57:24;;;;;;;1.55;1.17;;;4.80;99.90;;;;;;5087783;28;20273;-62
2024/02/25 04:59:50;;;;;;;1.73;1.40;;;4.80;99.90;;;;;;5084757;28;20202;-63
2024/02/25 05:02:17;;;;;;;1.52;1.00;;;4.80;99.90;;;;;;5112162;22;20226;-58
2024/02/25 05:04:45;;;;;;;2.20;1.17;;;4.80;99.90;;;;;;5093339;28;20204;-58
2024/02/25 05:07:12;;;;;;;3.13;1.63;;;4.80;99.90;;;;;;5092337;28;20308;-58
2024/02/25 05:09:39;;;;;;;1.85;1.30;;;4.90;99.90;;;;;;5091240;28;20288;-58
2024/02/25 05:12:06;;;;;;;1.20;1.10;;;4.90;99.90;;;;;;5089963;28;20225;-58
2024/02/25 05:14:33;;;;;;;1.73;1.50;;;5.00;99.90;;;;;;5089851;28;20632;-59
2024/02/25 05:17:00;;;;;;;1.38;1.00;;;5.00;99.90;;;;;;5089507;28;20197;-59
2024/02/25 05:19:26;;;;;;;1.58;1.48;;;5.00;99.90;;;;;;5090329;28;20205;-57
2024/02/25 05:21:56;;;;;;;2.42;1.60;;;5.10;99.90;;;;;;5089719;28;20735;-58
2024/02/25 05:24:23;;;;;;;1.23;1.10;;;5.10;99.90;;;;;;5077068;28;20743;-59
2024/02/25 05:26:49;;;;;;;2.10;1.30;;;5.10;99.90;;;;;;5076209;28;20198;-58
2024/02/25 05:29:16;;;;;;;1.17;1.08;;;5.10;99.90;;;;;;5076125;28;20575;-58
2024/02/25 05:31:43;;;;;;;1.95;1.30;;;5.20;99.90;;;;;;5075865;28;20719;-58
2024/02/25 05:34:09;;;;;;;2.55;1.35;;;5.20;99.90;;;;;;5076160;28;20707;-58
2024/02/25 05:36:36;;;;;;;2.28;1.20;;;5.20;99.90;;;;;;5076110;28;20209;-58
2024/02/25 05:39:04;;;;;;;1.42;1.33;;;5.30;99.90;;;;;;5075647;28;20202;-58
2024/02/25 05:41:31;;;;;;;2.08;1.50;;;5.30;99.90;;;;;;5075686;28;20217;-58
2024/02/25 05:43:58;;;;;;;1.50;1.30;;;5.30;99.90;;;;;;5075679;28;20207;-58
2024/02/25 05:46:24;;;;;;;1.33;1.10;;;5.30;99.90;;;;;;5075430;28;20209;-59
2024/02/25 05:48:51;;;;;;;5.22;1.70;;;5.30;99.90;;;;;;5075631;28;20199;-58
2024/02/25 05:51:18;;;;;;;2.67;1.38;;;5.20;99.90;;;;;;5075538;28;20222;-57
2024/02/25 05:53:44;;;;;;;2.00;1.60;;;5.20;99.90;;;;;;5075468;28;20202;-59
2024/02/25 05:56:13;;;;;;;2.42;1.10;;;5.20;99.90;;;;;;5075622;28;20197;-58
2024/02/25 05:58:39;;;;;;;2.55;1.27;;;5.20;99.90;;;;;;5075396;28;20672;-58
2024/02/25 06:01:08;;;;;;;1.20;1.10;;;5.20;99.90;;;;;;5075090;28;20236;-61
2024/02/25 06:03:35;;;;;;;2.28;1.20;;;5.20;99.90;;;;;;5075142;28;20198;-58
2024/02/25 06:06:02;;;;;;;4.38;1.60;;;5.20;99.90;;;;;;5075357;28;20208;-59
2024/02/25 06:08:29;;;;;;;1.50;1.20;;;5.20;99.90;;;;;;5075178;28;20228;-57
2024/02/25 06:10:55;;;;;;;3.67;1.52;;;5.30;99.90;;;;;;5074793;28;20214;-58
2024/02/25 06:13:23;;;;;;;1.60;1.20;;;5.20;99.90;;;;;;5075149;28;20214;-58
2024/02/25 06:15:50;;;;;;;1.80;1.55;;;5.30;99.90;;;;;;5075129;28;20206;-58
2024/02/25 06:18:18;;;;;;;1.52;1.27;;;5.30;99.90;;;;;;5075372;28;20209;-59
2024/02/25 06:20:44;;;;;;;2.17;1.30;;;5.30;99.90;;;;;;5075099;28;20202;-59
2024/02/25 06:23:11;;;;;;;1.98;1.35;;;5.40;99.90;;;;;;5074960;28;20197;-60
2024/02/25 06:25:38;;;;;;;1.45;1.05;;;5.40;99.90;;;;;;5075191;28;20209;-58
2024/02/25 06:28:05;;;;;;;1.40;1.30;;;5.40;99.90;;;;;;5074973;28;20199;-58
2024/02/25 06:30:33;;;;;;;2.92;1.10;;;5.40;99.90;;;;;;5074501;28;20690;-58
2024/02/25 06:33:00;;;;;;;2.03;1.20;;;5.40;99.90;;;;;;5074547;28;20256;-59
2024/02/25 06:35:26;;;;;;;2.15;1.50;;;5.50;99.90;;;;;;5073716;28;20202;-59
2024/02/25 06:37:53;;;;;;;1.50;1.17;;;5.50;99.90;;;;;;5075154;28;20213;-59
2024/02/25 06:40:20;;;;;;;2.00;1.60;;;5.50;99.90;;;;;;5074843;28;20210;-59
2024/02/25 06:42:47;;;;;;;1.40;1.30;;;5.50;99.90;;;;;;5075010;28;20219;-59
2024/02/25 06:45:14;;;;;;;2.35;1.48;;;5.50;99.90;;;;;;5074998;28;20233;-59
2024/02/25 06:47:42;;;;;;;2.25;1.52;;;5.60;99.90;;;;;;5074713;28;20670;-59
2024/02/25 06:50:09;;;;;;;1.55;1.40;;;5.60;99.90;;;;;;5074445;28;20207;-59
2024/02/25 06:52:36;;;;;;;1.50;1.27;;;5.60;99.90;;;;;;5074403;28;20234;-57
2024/02/25 06:55:04;;;;;;;1.90;1.60;;;5.60;99.90;;;;;;5074253;28;20202;-58
2024/02/25 06:57:31;;;;;;;2.92;2.05;;;5.60;99.90;;;;;;5074233;28;20211;-57
2024/02/25 06:59:59;;;;;;;2.33;1.70;;;5.60;99.90;;;;;;5074154;28;20217;-57
2024/02/25 07:02:26;;;;;;;1.77;1.50;;;5.60;99.90;;;;;;5074181;28;20233;-59
2024/02/25 07:04:54;;;;;;;1.48;1.30;;;5.60;99.90;;;;;;5074591;28;20543;-60
2024/02/25 07:07:20;;;;;;;2.55;1.73;;;5.60;99.90;;;;;;5076699;28;20209;-58
2024/02/25 07:09:47;;;;;;;4.57;1.70;;;5.60;99.90;;;;;;5075923;28;20198;-58
2024/02/25 07:12:14;;;;;;;1.77;1.45;;;5.60;99.90;;;;;;5075354;28;20234;-58
2024/02/25 07:14:42;;;;;;;2.03;1.70;;;5.70;99.90;;;;;;5075790;28;20206;-58
2024/02/25 07:17:09;;;;;;;1.77;1.60;;;5.70;99.90;;;;;;5075831;28;20255;-58
2024/02/25 07:19:35;;;;;;;2.60;1.85;;;5.70;99.90;;;;;;5075115;28;20637;-59
2024/02/25 07:22:05;;;;;;;1.95;1.70;;;5.80;99.90;;;;;;5074277;28;20228;-58
2024/02/25 07:24:32;;;;;;;1.70;1.60;;;5.80;99.90;;;;;;5073945;28;20206;-58
2024/02/25 07:26:58;;;;;;;2.10;1.90;;;5.90;99.90;;;;;;5073487;28;20684;-56
2024/02/25 07:29:25;;;;;;;3.58;1.95;;;5.90;99.90;;;;;;5073622;28;20210;-58
2024/02/25 07:31:52;;;;;;;3.33;2.00;;;6.00;99.90;;;;;;5073535;28;20242;-60
2024/02/25 07:34:19;;;;;;;3.40;1.50;;;6.10;99.90;;;;;;5073413;28;20203;-57
2024/02/25 07:36:46;;;;;;;2.20;1.83;;;6.10;99.90;;;;;;5073330;28;20206;-59
2024/02/25 07:39:14;;;;;;;3.10;1.80;;;6.20;99.90;;;;;;5074444;28;20202;-57
2024/02/25 07:41:40;;;;;;;2.03;1.58;;;6.20;99.90;;;;;;5076056;28;20223;-58
2024/02/25 07:44:07;;;;;;;2.38;1.50;;;6.30;99.90;;;;;;5076243;28;20197;-59
2024/02/25 07:46:34;;;;;;;2.95;1.50;;;6.30;99.90;;;;;;5074343;28;20203;-58
2024/02/25 07:49:01;;;;;;;3.38;1.35;;;6.40;99.90;;;;;;5073625;28;20203;-58
2024/02/25 07:51:28;;;;;;;2.00;1.67;;;6.50;99.90;;;;;;5073300;28;20223;-58
2024/02/25 07:53:54;;;;;;;1.75;1.25;;;6.60;99.90;;;;;;5073930;28;20234;-59
2024/02/25 07:56:23;;;;;;;2.42;1.65;;;6.70;99.90;;;;;;5073977;28;20199;-58
2024/02/25 07:58:50;;;;;;;1.40;1.30;;;6.80;99.90;;;;;;5073827;28;20200;-59
2024/02/25 08:01:16;;;;;;;2.95;1.35;;;6.80;99.90;;;;;;5073196;28;20254;-58
2024/02/25 08:03:43;;;;;;;4.65;2.00;;;6.90;99.90;;;;;;5073818;28;20200;-59
2024/02/25 08:06:10;;;;;;;1.90;1.30;;;7.00;99.90;;;;;;5073815;28;20207;-59
2024/02/25 08:08:37;;;;;;;1.63;1.20;;;7.00;99.90;;;;;;5075018;28;20203;-59
2024/02/25 08:11:04;;;;;;;2.45;1.30;;;7.00;99.90;;;;;;5075314;28;20227;-58
2024/02/25 08:13:32;;;;;;;2.67;1.50;;;7.00;99.90;;;;;;5074460;28;20224;-57
2024/02/25 08:15:59;;;;;;;1.80;1.20;;;7.10;99.90;;;;;;5073675;28;20624;-57
2024/02/25 08:18:26;;;;;;;1.25;1.15;;;7.10;99.90;;;;;;5073536;28;20555;-57
2024/02/25 08:20:52;;;;;;;2.80;1.80;;;7.20;99.90;;;;;;5074043;28;20209;-59
2024/02/25 08:23:20;;;;;;;2.15;1.40;;;7.30;99.90;;;;;;5073336;28;20201;-59
2024/02/25 08:25:47;;;;;;;1.98;1.50;;;7.40;99.90;;;;;;5073340;28;20303;-58
2024/02/25 08:28:13;;;;;;;2.58;1.80;;;7.50;99.90;;;;;;5073029;28;20231;-58
2024/02/25 08:30:41;;;;;;;3.95;2.15;;;7.70;99.90;;;;;;5072730;28;20574;-59
2024/02/25 08:33:08;;;;;;;3.08;1.50;;;7.80;99.90;;;;;;5073052;28;20253;-59
2024/02/25 08:35:35;;;;;;;2.38;1.52;;;7.90;99.90;;;;;;5072940;28;20208;-59
2024/02/25 08:38:02;;;;;;;1.80;1.45;;;8.00;99.90;;;;;;5072668;28;20227;-59
2024/02/25 08:40:30;;;;;;;1.65;1.52;;;8.10;99.90;;;;;;5072535;28;20691;-60
2024/02/25 08:42:56;;;;;;;1.38;1.17;;;8.10;99.90;;;;;;5072458;28;20274;-59
2024/02/25 08:45:23;;;;;;;1.27;0.95;;;8.20;99.90;;;;;;5072748;28;20233;-58
2024/02/25 08:47:52;;;;;;;3.58;1.40;;;8.20;99.90;;;;;;5072965;28;20205;-60
2024/02/25 08:50:18;;;;;;;2.10;1.50;;;8.30;99.90;;;;;;5072543;28;20211;-58
2024/02/25 08:52:45;;;;;;;2.40;1.33;;;8.40;99.90;;;;;;5072179;28;20698;-59
2024/02/25 08:55:12;;;;;;;3.00;1.98;;;8.40;99.90;;;;;;5072875;28;20215;-59
2024/02/25 08:57:39;;;;;;;2.20;1.50;;;8.40;99.90;;;;;;5072795;28;20315;-59
2024/02/25 09:00:07;;;;;;;3.10;1.95;;;8.40;99.80;;;;;;5076562;28;20441;-58
2024/02/25 09:02:34;;;;;;;1.52;1.15;;;8.40;99.60;;;;;;5076231;28;20658;-58
2024/02/25 09:05:03;;;;;;;1.50;1.20;;;8.40;99.20;;;;;;5076123;28;20737;-59
2024/02/25 09:07:31;;;;;;;3.35;1.65;;;8.30;98.90;;;;;;5076594;28;20202;-60
2024/02/25 09:09:57;;;;;;;1.85;1.40;;;8.30;98.90;;;;;;5076190;28;20208;-58
2024/02/25 09:12:24;;;;;;;1.95;1.50;;;8.40;98.80;;;;;;5076345;28;20218;-59
2024/02/25 09:14:51;;;;;;;2.60;1.65;;;8.50;98.80;;;;;;5076434;28;20212;-59
2024/02/25 09:17:18;;;;;;;1.17;1.00;;;8.60;98.50;;;;;;5075741;28;20213;-58
2024/02/25 09:19:44;;;;;;;2.33;1.63;;;8.80;98.00;;;;;;5075536;28;20445;-59
2024/02/25 09:22:12;;;;;;;1.90;1.60;;;8.90;97.30;;;;;;5076019;28;20233;-58
2024/02/25 09:24:39;;;;;;;1.83;1.20;;;9.10;96.90;;;;;;5075933;28;20445;-59
2024/02/25 09:27:06;;;;;;;1.53;1.27;;;9.20;96.20;;;;;;5075630;28;20446;-58
2024/02/25 09:29:33;;;;;;;2.50;1.57;;;9.20;95.70;;;;;;5075983;28;20788;-59
2024/02/25 09:32:00;;;;;;;2.60;1.40;;;9.30;95.40;;;;;;5075796;28;20472;-58
2024/02/25 09:34:26;;;;;;;1.33;1.10;;;9.30;95.00;;;;;;5077221;28;20492;-58
2024/02/25 09:36:53;;;;;;;2.53;1.47;;;9.40;94.90;;;;;;5076522;28;20444;-58
2024/02/25 09:39:21;;;;;;;1.97;1.50;;;9.40;94.20;;;;;;5077194;28;20459;-58
2024/02/25 09:41:51;;;;;;;1.80;0.80;;;9.40;94.10;;;;;;5077094;28;20467;-60
2024/02/25 09:44:22;;;;;;;2.37;1.77;;;9.40;94.10;;;;;;5076346;28;20790;-58
2024/02/25 09:46:50;;;;;;;2.77;1.50;;;9.40;93.90;;;;;;5076014;28;20441;-59
2024/02/25 09:49:19;;;;;;;1.30;1.20;;;9.40;93.40;;;;;;5075612;28;21005;-60
2024/02/25 09:51:48;;;;;;;1.53;1.40;;;9.50;93.50;;;;;;5076353;28;20480;-58
2024/02/25 09:54:16;;;;;;;1.40;1.30;;;9.60;93.10;;;;;;5076178;28;20487;-59
2024/02/25 09:56:48;;;;;;;1.00;0.90;;;9.70;92.80;;;;;;5075564;28;20451;-59
2024/02/25 09:59:15;;;;;;;3.00;1.10;;;9.70;92.60;;;;;;5075908;28;20437;-59
2024/02/25 10:01:44;;;;;;;1.00;0.87;;;9.70;92.00;;;;;;5075365;28;20473;-59
2024/02/25 10:04:11;;;;;;;1.27;0.90;;;9.50;92.00;;;;;;5075262;28;20942;-60
2024/02/25 10:06:38;;;;;;;1.43;1.20;;;9.20;93.20;;;;;;5075684;28;20821;-58
2024/02/25 10:09:07;;;;;;;1.10;1.00;;;8.80;95.60;;;;;;5075561;28;20436;-57
2024/02/25 10:11:34;;;;;;;1.17;1.00;;;8.50;97.90;;;;;;5075442;28;20275;-58
2024/02/25 10:14:03;;;;;;;1.10;0.98;;;8.20;99.90;;;;;;5075374;28;20594;-58
2024/02/25 10:16:29;;;;;;;1.10;0.82;;;8.00;99.90;;;;;;5075084;28;20221;-58
2024/02/25 10:18:56;;;;;;;0.95;0.77;;;7.90;99.90;;;;;;5074766;28;20211;-60
2024/02/25 10:21:23;;;;;;;1.50;1.17;;;7.80;99.90;;;;;;5075675;28;20221;-61
2024/02/25 10:23:54;;;;;;;1.90;1.40;;;7.80;99.90;;;;;;5076923;28;20206;-60
2024/02/25 10:26:23;;;;;;;4.68;1.80;;;8.00;99.90;;;;;;5075034;28;20242;-59
2024/02/25 10:29:06;;;;;;;2.45;0.95;;;8.20;99.90;;;;;;5075504;28;20292;-60
2024/02/25 10:31:33;;;;;;;2.40;1.30;;;8.40;99.90;;;;;;5075184;28;20226;-59
2024/02/25 10:34:00;;;;;;;1.80;1.10;;;8.50;99.90;;;;;;5074942;28;20221;-59
2024/02/25 10:36:28;;;;;;;0.80;0.70;;;8.60;99.90;;;;;;5074880;28;20216;-59
2024/02/25 10:38:56;;;;;;;2.13;1.53;;;8.70;99.90;;;;;;5074530;28;20653;-60
2024/02/25 10:41:24;;;;;;;1.60;1.23;;;8.90;99.90;;;;;;5074231;28;20460;-59
2024/02/25 10:43:55;;;;;;;2.23;1.10;;;9.00;99.90;;;;;;5074815;28;20452;-60
2024/02/25 10:46:29;;;;;;;1.03;0.93;;;9.10;99.90;;;;;;5074681;28;20427;-61
2024/02/25 10:48:58;;;;;;;2.83;1.10;;;9.30;99.90;;;;;;5074460;28;20433;-60
2024/02/25 10:51:25;;;;;;;0.90;0.80;;;9.40;99.90;;;;;;5074286;28;20459;-60
2024/02/25 10:53:53;;;;;;;1.30;1.03;;;9.60;99.90;;;;;;5073838;28;20225;-60
2024/02/25 10:56:20;;;;;;;1.73;1.07;;;9.80;99.90;;;;;;5074751;28;20451;-60
2024/02/25 10:58:47;;;;;;;1.53;0.80;;;9.90;98.50;;;;;;5074525;28;20452;-59
2024/02/25 11:01:14;;;;;;;1.20;1.00;;;9.90;97.30;;;;;;5074475;28;20480;-59
2024/02/25 11:03:43;;;;;;;1.37;1.10;;;10.00;97.40;;;;;;5074425;28;20445;-60
2024/02/25 11:06:10;;;;;;;1.27;1.00;;;10.30;96.90;;;;;;5074251;28;20442;-59
2024/02/25 11:08:43;;;;;;;1.47;1.10;;;10.60;96.10;;;;;;5074339;28;20445;-60
2024/02/25 11:11:10;;;;;;;1.30;1.07;;;10.80;94.80;;;;;;5075021;28;20511;-59
2024/02/25 11:13:42;;;;;;;1.20;0.90;;;10.90;93.80;;;;;;5074462;28;20485;-58
2024/02/25 11:16:09;;;;;;;2.83;1.23;;;10.90;92.90;;;;;;5073815;28;20426;-59
2024/02/25 11:18:40;;;;;;;1.40;1.10;;;10.90;92.40;;;;;;5074250;28;20469;-60
2024/02/25 11:21:10;;;;;;;2.13;1.20;;;10.90;91.80;;;;;;5073910;28;20461;-61
2024/02/25 11:23:42;;;;;;;10.50;6.93;;;10.80;91.50;;;;;;5073985;28;20922;-59
2024/02/25 11:26:42;;;;;;;4.00;3.00;;;10.80;91.40;;;;;;5073520;28;20860;-60
2024/02/25 11:29:22;;;;;;;1.33;1.20;;;10.80;90.60;;;;;;5073704;28;20814;-60
2024/02/25 11:31:53;;;;;;;11.93;7.60;;;10.80;89.70;;;;;;5073463;28;20453;-60
2024/02/25 11:34:21;;;;;;;10.03;6.40;;;10.60;88.60;;;;;;5073154;28;20481;-60
2024/02/25 11:36:55;;;;;;;3.53;2.67;;;10.70;89.30;;;;;;5073168;28;20439;-59
2024/02/25 11:39:26;;;;;;;5.33;1.20;;;10.70;88.30;;;;;;5073241;28;20431;-60
2024/02/25 11:41:54;;;;;;;0.97;0.87;;;10.80;86.90;;;;;;5073054;28;20462;-60
2024/02/25 11:44:23;;;;;;;1.10;1.00;;;10.80;85.50;;;;;;5073481;28;20437;-59
2024/02/25 11:46:50;;;;;;;1.40;0.90;;;10.80;84.10;;;;;;5073757;28;20453;-61
2024/02/25 11:49:16;;;;;;;1.20;1.10;;;10.80;83.90;;;;;;5073303;28;20467;-59
2024/02/25 11:51:44;;;;;;;3.33;0.90;;;10.80;82.80;;;;;;5073298;28;20830;-61
2024/02/25 11:54:13;;;;;;;0.80;0.70;;;10.80;82.10;;;;;;5073467;28;20504;-59
2024/02/25 11:56:40;;;;;;;1.13;0.90;;;10.80;81.40;;;;;;5073482;28;20441;-59
2024/02/25 11:59:08;;;;;;;1.43;1.00;;;10.80;80.30;;;;;;5073773;28;20457;-60
2024/02/25 12:01:36;;;;;;;0.97;0.87;;;10.70;80.10;;;;;;5073648;28;20481;-61
2024/02/25 12:04:03;;;;;;;0.87;0.70;;;10.70;79.80;;;;;;5074452;28;20448;-60
2024/02/25 12:06:32;;;;;;;1.07;0.97;;;10.60;79.90;;;;;;5074679;28;20540;-59
2024/02/25 12:09:00;;;;;;;1.00;0.90;;;10.40;78.50;;;;;;5075434;28;20873;-60
2024/02/25 12:11:28;;;;;;;1.13;1.00;;;10.30;79.30;;;;;;5074251;28;20505;-59
2024/02/25 12:14:02;;;;;;;1.47;0.90;;;10.10;79.00;;;;;;5074454;28;20492;-59
2024/02/25 12:16:30;;;;;;;2.30;1.33;;;10.00;79.00;;;;;;5074431;28;20442;-59
2024/02/25 12:18:57;;;;;;;1.27;1.07;;;10.10;79.60;;;;;;5073841;28;21036;-60
2024/02/25 12:21:25;;;;;;;1.20;0.90;;;10.10;79.00;;;;;;5072925;28;20564;-59
2024/02/25 12:23:55;;;;;;;2.97;2.57;;;10.20;78.90;;;;;;5073100;28;20445;-59
2024/02/25 12:26:22;;;;;;;2.50;1.70;;;10.20;79.00;;;;;;5073045;28;20553;-60
2024/02/25 12:28:50;;;;;;;1.93;1.30;;;10.20;78.30;;;;;;5073661;28;20531;-59
2024/02/25 12:31:17;;;;;;;1.30;1.10;;;10.20;78.50;;;;;;5073593;28;20460;-59
2024/02/25 12:33:47;;;;;;;1.30;1.17;;;10.20;79.00;;;;;;5074218;28;20472;-59
2024/02/25 12:36:14;;;;;;;1.67;1.00;;;10.30;79.40;;;;;;5076759;28;20525;-59
2024/02/25 12:38:48;;;;;;;1.63;0.90;;;10.50;79.00;;;;;;5076282;28;20966;-60
2024/02/25 12:41:15;;;;;;;1.90;1.40;;;10.60;78.20;;;;;;5076693;28;20461;-59
2024/02/25 12:43:44;;;;;;;1.27;1.17;;;10.70;77.90;;;;;;5076639;28;20445;-59
2024/02/25 12:46:13;;;;;;;1.40;0.83;;;10.80;77.90;;;;;;5076538;28;20450;-59
2024/02/25 12:48:39;;;;;;;1.53;1.20;;;11.00;77.30;;;;;;5076361;28;20482;-58
2024/02/25 12:51:07;;;;;;;1.40;1.07;;;11.10;76.40;;;;;;5076472;28;20826;-58
2024/02/25 12:53:34;;;;;;;0.90;0.90;;;11.20;75.60;;;;;;5076858;28;20490;-58
2024/02/25 12:56:00;;;;;;;1.10;1.00;;;11.20;74.70;;;;;;5078719;28;20439;-60
2024/02/25 12:58:27;;;;;;;1.87;0.90;;;11.20;75.00;;;;;;5078071;28;20431;-60
2024/02/25 13:00:55;;;;;;;0.90;0.80;;;11.10;74.90;;;;;;5077053;28;20435;-60